createdAt,value
2023-02-19T00:00:11.958Z,1009.37
2023-02-19T00:03:11.961Z,1009.37
2023-02-19T00:06:11.962Z,1009.36
2023-02-19T00:09:11.974Z,1009.29
2023-02-19T00:12:11.967Z,1009.31
2023-02-19T00:15:11.962Z,1009.25
2023-02-19T00:18:11.959Z,1009.18
2023-02-19T00:21:12.228Z,1009.12
2023-02-19T00:24:11.972Z,1009.07
2023-02-19T00:27:11.968Z,1009.1
2023-02-19T00:30:12.025Z,1009.16
2023-02-19T00:33:11.969Z,1009.18
2023-02-19T00:36:11.968Z,1009.14
2023-02-19T00:39:11.983Z,1009.12
2023-02-19T00:42:11.968Z,1009.18
2023-02-19T00:45:11.972Z,1009.22
2023-02-19T00:48:11.965Z,1009.21
2023-02-19T00:51:12.162Z,1009.17
2023-02-19T00:54:11.986Z,1008.95
2023-02-19T00:57:11.970Z,1008.98
2023-02-19T01:00:11.972Z,1008.99
2023-02-19T01:03:11.968Z,1008.92
2023-02-19T01:06:11.969Z,1009.06
2023-02-19T01:09:11.986Z,1009.01
2023-02-19T01:12:11.969Z,1008.86
2023-02-19T01:15:11.970Z,1008.82
2023-02-19T01:18:11.967Z,1008.85
2023-02-19T01:21:12.176Z,1008.84
2023-02-19T01:24:11.978Z,1008.8
2023-02-19T01:27:11.968Z,1008.79
2023-02-19T01:30:12.002Z,1008.75
2023-02-19T01:33:11.973Z,1008.72
2023-02-19T01:36:12.022Z,1008.76
2023-02-19T01:39:11.989Z,1008.71
2023-02-19T01:42:11.968Z,1008.7
2023-02-19T01:45:11.970Z,1008.71
2023-02-19T01:48:11.971Z,1008.69
2023-02-19T01:51:12.263Z,1008.69
2023-02-19T01:54:11.987Z,1008.62
2023-02-19T01:57:11.976Z,1008.59
2023-02-19T02:00:11.977Z,1008.58
2023-02-19T02:03:11.978Z,1008.58
2023-02-19T02:06:12.004Z,1008.62
2023-02-19T02:09:12.004Z,1008.6
2023-02-19T02:12:11.973Z,1008.55
2023-02-19T02:15:11.976Z,1008.46
2023-02-19T02:18:11.982Z,1008.37
2023-02-19T02:21:12.146Z,1008.31
2023-02-19T02:24:11.991Z,1008.38
2023-02-19T02:27:11.981Z,1008.31
2023-02-19T02:30:11.985Z,1008.38
2023-02-19T02:33:11.985Z,1008.3
2023-02-19T02:36:11.990Z,1008.19
2023-02-19T02:39:11.987Z,1008.26
2023-02-19T02:42:11.984Z,1008.26
2023-02-19T02:45:11.982Z,1008.27
2023-02-19T02:48:11.989Z,1008.17
2023-02-19T02:51:12.301Z,1008.12
2023-02-19T02:54:11.996Z,1008.2
2023-02-19T02:57:11.991Z,1008.27
2023-02-19T03:00:11.986Z,1008.2
2023-02-19T03:03:11.984Z,1008.14
2023-02-19T03:06:11.980Z,1008.07
2023-02-19T03:09:12.013Z,1008.1
2023-02-19T03:12:11.998Z,1008.12
2023-02-19T03:15:11.999Z,1008.11
2023-02-19T03:18:11.988Z,1008.11
2023-02-19T03:21:12.210Z,1008.05
2023-02-19T03:24:11.996Z,1008
2023-02-19T03:27:11.985Z,1008.03
2023-02-19T03:30:12.037Z,1008.09
2023-02-19T03:33:11.994Z,1008.1
2023-02-19T03:36:11.995Z,1008.1
2023-02-19T03:39:11.992Z,1008.08
2023-02-19T03:42:11.983Z,1008.1
2023-02-19T03:45:11.981Z,1008.07
2023-02-19T03:48:11.987Z,1008.07
2023-02-19T03:51:12.175Z,1008.13
2023-02-19T03:54:12.004Z,1008.24
2023-02-19T03:57:11.982Z,1008.3
2023-02-19T04:00:11.990Z,1008.32
2023-02-19T04:03:11.988Z,1008.3
2023-02-19T04:06:11.998Z,1008.34
2023-02-19T04:09:12.006Z,1008.3
2023-02-19T04:12:11.993Z,1008.34
2023-02-19T04:15:11.992Z,1008.38
2023-02-19T04:18:11.995Z,1008.32
2023-02-19T04:21:12.310Z,1008.31
2023-02-19T04:24:12.007Z,1008.27
2023-02-19T04:27:11.991Z,1008.29
2023-02-19T04:30:12.023Z,1008.29
2023-02-19T04:33:11.988Z,1008.33
2023-02-19T04:36:11.983Z,1008.39
2023-02-19T04:39:11.995Z,1008.43
2023-02-19T04:42:11.988Z,1008.35
2023-02-19T04:45:11.989Z,1008.39
2023-02-19T04:48:11.989Z,1008.47
2023-02-19T04:51:12.335Z,1008.52
2023-02-19T04:54:12.006Z,1008.56
2023-02-19T04:57:11.987Z,1008.64
2023-02-19T05:00:11.986Z,1008.67
2023-02-19T05:03:11.995Z,1008.77
2023-02-19T05:06:11.996Z,1008.83
2023-02-19T05:09:12.009Z,1008.82
2023-02-19T05:12:11.990Z,1008.84
2023-02-19T05:15:11.988Z,1008.81
2023-02-19T05:18:11.995Z,1008.8
2023-02-19T05:21:12.279Z,1008.81
2023-02-19T05:24:11.997Z,1008.86
2023-02-19T05:27:12.009Z,1008.92
2023-02-19T05:30:12.009Z,1008.89
2023-02-19T05:33:11.994Z,1008.86
2023-02-19T05:36:11.994Z,1008.86
2023-02-19T05:39:12.002Z,1008.88
2023-02-19T05:42:11.993Z,1008.9
2023-02-19T05:45:11.998Z,1008.97
2023-02-19T05:48:11.995Z,1008.98
2023-02-19T05:51:12.274Z,1009.05
2023-02-19T05:54:12.006Z,1009.08
2023-02-19T05:57:12.001Z,1009.16
2023-02-19T06:00:11.998Z,1009.19
2023-02-19T06:03:12.006Z,1009.21
2023-02-19T06:06:11.992Z,1009.17
2023-02-19T06:09:12.011Z,1009.26
2023-02-19T06:12:11.996Z,1009.34
2023-02-19T06:15:11.998Z,1009.43
2023-02-19T06:18:12.007Z,1009.43
2023-02-19T06:21:12.289Z,1009.42
2023-02-19T06:24:12.001Z,1009.39
2023-02-19T06:27:11.998Z,1009.42
2023-02-19T06:30:12.059Z,1009.58
2023-02-19T06:33:12.003Z,1009.66
2023-02-19T06:36:12.003Z,1009.67
2023-02-19T06:39:12.007Z,1009.69
2023-02-19T06:42:12.004Z,1009.73
2023-02-19T06:45:12.003Z,1009.71
2023-02-19T06:48:12.002Z,1009.78
2023-02-19T06:51:12.184Z,1009.81
2023-02-19T06:54:12.258Z,1009.75
2023-02-19T06:57:12.695Z,1009.79
2023-02-19T07:00:12.697Z,1009.85
2023-02-19T07:03:12.701Z,1009.85
2023-02-19T07:06:12.683Z,1009.89
2023-02-19T07:09:12.698Z,1009.92
2023-02-19T07:12:12.690Z,1009.95
2023-02-19T07:15:12.687Z,1009.96
2023-02-19T07:18:12.685Z,1010.07
2023-02-19T07:21:12.925Z,1010.12
2023-02-19T07:24:12.696Z,1010.14
2023-02-19T07:27:12.683Z,1010.21
2023-02-19T07:30:12.706Z,1010.28
2023-02-19T07:33:12.719Z,1010.26
2023-02-19T07:36:12.677Z,1010.29
2023-02-19T07:39:12.686Z,1010.35
2023-02-19T07:42:12.743Z,1010.37
2023-02-19T07:45:12.728Z,1010.45
2023-02-19T07:48:12.760Z,1010.52
2023-02-19T07:51:12.996Z,1010.48
2023-02-19T07:54:12.756Z,1010.53
2023-02-19T07:57:12.738Z,1010.6
2023-02-19T08:00:12.723Z,1010.63
2023-02-19T08:03:12.756Z,1010.65
2023-02-19T08:06:12.749Z,1010.74
2023-02-19T08:09:12.751Z,1010.77
2023-02-19T08:12:12.763Z,1010.75
2023-02-19T08:15:12.738Z,1010.8
2023-02-19T08:18:12.739Z,1010.84
2023-02-19T08:21:12.738Z,1010.97
2023-02-19T08:24:12.760Z,1011.05
2023-02-19T08:27:12.752Z,1011.07
2023-02-19T08:30:12.805Z,1011.16
2023-02-19T08:33:12.739Z,1011.18
2023-02-19T08:36:12.739Z,1011.27
2023-02-19T08:39:12.750Z,1011.27
2023-02-19T08:42:12.735Z,1011.33
2023-02-19T08:45:12.743Z,1011.33
2023-02-19T08:48:12.740Z,1011.32
2023-02-19T08:51:13.097Z,1011.4
2023-02-19T08:54:12.742Z,1011.41
2023-02-19T08:57:12.741Z,1011.4
2023-02-19T09:00:12.727Z,1011.37
2023-02-19T09:03:12.744Z,1011.4
2023-02-19T09:06:12.882Z,1011.49
2023-02-19T09:09:12.753Z,1011.51
2023-02-19T09:12:12.743Z,1011.53
2023-02-19T09:15:12.733Z,1011.54
2023-02-19T09:18:12.741Z,1011.56
2023-02-19T09:21:13.037Z,1011.62
2023-02-19T09:24:12.753Z,1011.68
2023-02-19T09:27:12.738Z,1011.8
2023-02-19T09:30:12.794Z,1011.77
2023-02-19T09:33:12.760Z,1011.76
2023-02-19T09:36:12.745Z,1011.67
2023-02-19T09:39:12.766Z,1011.69
2023-02-19T09:42:12.745Z,1011.72
2023-02-19T09:45:12.742Z,1011.73
2023-02-19T09:48:12.755Z,1011.75
2023-02-19T09:51:12.877Z,1011.75
2023-02-19T09:54:12.904Z,1011.79
2023-02-19T09:57:12.766Z,1011.83
2023-02-19T10:00:12.749Z,1011.88
2023-02-19T10:03:12.748Z,1012.01
2023-02-19T10:06:12.763Z,1012.11
2023-02-19T10:09:12.754Z,1012.16
2023-02-19T10:12:12.736Z,1012.17
2023-02-19T10:15:12.779Z,1012.31
2023-02-19T10:18:12.743Z,1012.38
2023-02-19T10:21:13.010Z,1012.35
2023-02-19T10:24:12.754Z,1012.44
2023-02-19T10:27:12.761Z,1012.52
2023-02-19T10:30:12.761Z,1012.52
2023-02-19T10:33:12.759Z,1012.56
2023-02-19T10:36:12.756Z,1012.5
2023-02-19T10:39:12.754Z,1012.49
2023-02-19T10:42:12.751Z,1012.57
2023-02-19T10:45:12.747Z,1012.65
2023-02-19T10:48:12.744Z,1012.73
2023-02-19T10:51:12.925Z,1012.77
2023-02-19T10:54:12.767Z,1012.78
2023-02-19T10:57:12.749Z,1012.81
2023-02-19T11:00:12.755Z,1012.9
2023-02-19T11:03:12.754Z,1013.07
2023-02-19T11:06:12.755Z,1012.99
2023-02-19T11:09:12.754Z,1012.93
2023-02-19T11:12:12.743Z,1013.04
2023-02-19T11:15:12.754Z,1013.02
2023-02-19T11:18:12.768Z,1013.03
2023-02-19T11:21:12.954Z,1013.04
2023-02-19T11:24:12.756Z,1013.12
2023-02-19T11:27:12.749Z,1013.17
2023-02-19T11:30:12.765Z,1013.18
2023-02-19T11:33:12.750Z,1013.13
2023-02-19T11:36:12.759Z,1013.2
2023-02-19T11:39:12.761Z,1013.1
2023-02-19T11:42:12.764Z,1013
2023-02-19T11:45:12.764Z,1012.92
2023-02-19T11:48:12.757Z,1013.05
2023-02-19T11:51:12.920Z,1013.01
2023-02-19T11:54:12.768Z,1013.08
2023-02-19T11:57:12.756Z,1013.07
2023-02-19T12:00:12.915Z,1012.99
2023-02-19T12:03:12.922Z,1012.9
2023-02-19T12:06:13.025Z,1012.88
2023-02-19T12:09:12.939Z,1012.82
2023-02-19T12:12:12.921Z,1012.77
2023-02-19T12:15:12.922Z,1012.82
2023-02-19T12:18:12.931Z,1012.85
2023-02-19T12:21:12.912Z,1012.86
2023-02-19T12:24:12.930Z,1012.88
2023-02-19T12:27:13.053Z,1012.87
2023-02-19T12:30:13.017Z,1012.86
2023-02-19T12:33:12.923Z,1012.97
2023-02-19T12:36:13.195Z,1012.94
2023-02-19T12:39:12.927Z,1013.02
2023-02-19T12:42:12.924Z,1013.09
2023-02-19T12:45:12.919Z,1013.05
2023-02-19T12:48:12.917Z,1012.96
2023-02-19T12:51:12.914Z,1012.95
2023-02-19T12:54:12.935Z,1012.92
2023-02-19T12:57:12.920Z,1012.92
2023-02-19T13:00:12.919Z,1012.87
2023-02-19T13:03:12.933Z,1012.86
2023-02-19T13:06:13.697Z,1012.8
2023-02-19T13:09:12.931Z,1012.82
2023-02-19T13:12:12.923Z,1012.88
2023-02-19T13:15:12.911Z,1012.9
2023-02-19T13:18:12.923Z,1012.98
2023-02-19T13:21:13.060Z,1012.95
2023-02-19T13:24:12.936Z,1012.93
2023-02-19T13:27:12.926Z,1012.93
2023-02-19T13:30:12.949Z,1012.92
2023-02-19T13:33:12.930Z,1012.9
2023-02-19T13:36:12.937Z,1012.99
2023-02-19T13:39:12.946Z,1013.05
2023-02-19T13:42:12.940Z,1013.03
2023-02-19T13:45:12.926Z,1013.04
2023-02-19T13:48:12.928Z,1013.13
2023-02-19T13:51:13.241Z,1013.12
2023-02-19T13:54:12.953Z,1013.13
2023-02-19T13:57:12.945Z,1013.14
2023-02-19T14:00:12.927Z,1013.2
2023-02-19T14:03:12.941Z,1013.22
2023-02-19T14:06:12.942Z,1013.2
2023-02-19T14:09:12.941Z,1013.26
2023-02-19T14:12:15.399Z,1013.25
2023-02-19T14:15:12.933Z,1013.32
2023-02-19T14:18:12.932Z,1013.38
2023-02-19T14:21:13.070Z,1013.37
2023-02-19T14:24:12.942Z,1013.33
2023-02-19T14:27:12.924Z,1013.38
2023-02-19T14:30:12.958Z,1013.43
2023-02-19T14:33:12.942Z,1013.46
2023-02-19T14:36:12.927Z,1013.53
2023-02-19T14:39:12.937Z,1013.42
2023-02-19T14:42:12.928Z,1013.46
2023-02-19T14:45:12.932Z,1013.38
2023-02-19T14:48:14.964Z,1013.39
2023-02-19T14:51:13.217Z,1013.41
2023-02-19T14:54:15.360Z,1013.44
2023-02-19T14:57:12.936Z,1013.49
2023-02-19T15:00:14.054Z,1013.5
2023-02-19T15:03:12.948Z,1013.51
2023-02-19T15:06:12.931Z,1013.47
2023-02-19T15:09:12.931Z,1013.56
2023-02-19T15:12:12.929Z,1013.55
2023-02-19T15:15:12.934Z,1013.62
2023-02-19T15:18:12.959Z,1013.68
2023-02-19T15:21:13.098Z,1013.75
2023-02-19T15:24:12.944Z,1013.78
2023-02-19T15:27:12.940Z,1013.84
2023-02-19T15:30:12.964Z,1013.92
2023-02-19T15:33:12.950Z,1013.94
2023-02-19T15:36:12.955Z,1013.94
2023-02-19T15:39:12.943Z,1013.94
2023-02-19T15:42:12.949Z,1014.01
2023-02-19T15:45:12.944Z,1014.01
2023-02-19T15:48:12.966Z,1014.03
2023-02-19T15:51:13.368Z,1013.94
2023-02-19T15:54:12.948Z,1013.93
2023-02-19T15:57:12.966Z,1013.88
2023-02-19T16:00:12.972Z,1013.78
2023-02-19T16:03:12.973Z,1013.72
2023-02-19T16:06:12.954Z,1013.69
2023-02-19T16:09:12.963Z,1013.62
2023-02-19T16:12:12.950Z,1013.6
2023-02-19T16:15:12.959Z,1013.6
2023-02-19T16:18:12.995Z,1013.58
2023-02-19T16:21:13.173Z,1013.5
2023-02-19T16:24:12.964Z,1013.53
2023-02-19T16:27:12.956Z,1013.62
2023-02-19T16:30:13.028Z,1013.68
2023-02-19T16:33:12.965Z,1013.68
2023-02-19T16:36:13.067Z,1013.71
2023-02-19T16:39:12.971Z,1013.73
2023-02-19T16:42:13.004Z,1013.73
2023-02-19T16:45:12.955Z,1013.79
2023-02-19T16:48:12.981Z,1013.78
2023-02-19T16:51:13.230Z,1013.93
2023-02-19T16:54:12.958Z,1013.96
2023-02-19T16:57:12.961Z,1014
2023-02-19T17:00:12.956Z,1014.03
2023-02-19T17:03:12.985Z,1014.13
2023-02-19T17:06:12.958Z,1014.2
2023-02-19T17:09:12.994Z,1014.24
2023-02-19T17:12:12.962Z,1014.27
2023-02-19T17:15:12.963Z,1014.28
2023-02-19T17:18:12.974Z,1014.39
2023-02-19T17:21:13.250Z,1014.54
2023-02-19T17:24:12.974Z,1014.69
2023-02-19T17:27:12.958Z,1014.74
2023-02-19T17:30:12.977Z,1014.8
2023-02-19T17:33:12.971Z,1014.82
2023-02-19T17:36:12.976Z,1014.83
2023-02-19T17:39:12.967Z,1014.87
2023-02-19T17:42:12.962Z,1014.95
2023-02-19T17:45:12.962Z,1014.93
2023-02-19T17:48:12.968Z,1014.99
2023-02-19T17:51:13.182Z,1014.97
2023-02-19T17:54:12.963Z,1015.03
2023-02-19T17:57:12.962Z,1015.03
2023-02-19T18:00:12.966Z,1015.01
2023-02-19T18:03:13.040Z,1015.08
2023-02-19T18:06:12.962Z,1015.09
2023-02-19T18:09:12.973Z,1015.18
2023-02-19T18:12:12.972Z,1015.24
2023-02-19T18:15:12.978Z,1015.26
2023-02-19T18:18:12.976Z,1015.36
2023-02-19T18:21:13.308Z,1015.42
2023-02-19T18:24:12.976Z,1015.44
2023-02-19T18:27:12.980Z,1015.45
2023-02-19T18:30:13.004Z,1015.47
2023-02-19T18:33:12.978Z,1015.46
2023-02-19T18:36:12.975Z,1015.39
2023-02-19T18:39:12.988Z,1015.37
2023-02-19T18:42:12.978Z,1015.47
2023-02-19T18:45:13.040Z,1015.46
2023-02-19T18:48:12.987Z,1015.47
2023-02-19T18:51:13.135Z,1015.45
2023-02-19T18:54:12.996Z,1015.47
2023-02-19T18:57:12.977Z,1015.43
2023-02-19T19:00:12.977Z,1015.41
2023-02-19T19:03:12.983Z,1015.38
2023-02-19T19:06:12.982Z,1015.3
2023-02-19T19:09:13.000Z,1015.33
2023-02-19T19:12:12.986Z,1015.34
2023-02-19T19:15:12.987Z,1015.31
2023-02-19T19:18:12.990Z,1015.31
2023-02-19T19:21:13.204Z,1015.37
2023-02-19T19:24:12.998Z,1015.39
2023-02-19T19:27:12.991Z,1015.41
2023-02-19T19:30:13.005Z,1015.42
2023-02-19T19:33:14.167Z,1015.4
2023-02-19T19:36:13.005Z,1015.41
2023-02-19T19:39:12.991Z,1015.49
2023-02-19T19:42:12.998Z,1015.5
2023-02-19T19:45:12.998Z,1015.54
2023-02-19T19:48:12.996Z,1015.5
2023-02-19T19:51:13.239Z,1015.56
2023-02-19T19:54:13.004Z,1015.7
2023-02-19T19:57:12.992Z,1015.62
2023-02-19T20:00:12.994Z,1015.6
2023-02-19T20:03:12.991Z,1015.62
2023-02-19T20:06:13.002Z,1015.61
2023-02-19T20:09:12.998Z,1015.58
2023-02-19T20:12:12.999Z,1015.58
2023-02-19T20:15:12.999Z,1015.63
2023-02-19T20:18:12.998Z,1015.68
2023-02-19T20:21:13.416Z,1015.67
2023-02-19T20:24:13.004Z,1015.71
2023-02-19T20:27:12.977Z,1015.78
2023-02-19T20:30:13.014Z,1015.85
2023-02-19T20:33:12.993Z,1015.89
2023-02-19T20:36:13.018Z,1015.93
2023-02-19T20:39:13.007Z,1016.02
2023-02-19T20:42:16.431Z,1016.05
2023-02-19T20:45:12.994Z,1016.07
2023-02-19T20:48:12.999Z,1016.08
2023-02-19T20:51:12.991Z,1016.09
2023-02-19T20:54:12.997Z,1016.07
2023-02-19T20:57:13.012Z,1016.03
2023-02-19T21:00:13.000Z,1015.96
2023-02-19T21:03:12.993Z,1015.96
2023-02-19T21:06:13.241Z,1015.91
2023-02-19T21:09:13.014Z,1015.89
2023-02-19T21:12:13.008Z,1015.99
2023-02-19T21:15:12.996Z,1016.01
2023-02-19T21:18:13.005Z,1016.07
2023-02-19T21:21:13.001Z,1016.14
2023-02-19T21:24:13.001Z,1016.2
2023-02-19T21:27:12.996Z,1016.29
2023-02-19T21:30:13.073Z,1016.34
2023-02-19T21:33:13.005Z,1016.34
2023-02-19T21:36:13.298Z,1016.33
2023-02-19T21:39:13.026Z,1016.32
2023-02-19T21:42:13.004Z,1016.34
2023-02-19T21:45:13.014Z,1016.3
2023-02-19T21:48:12.997Z,1016.37
2023-02-19T21:51:13.008Z,1016.38
2023-02-19T21:54:13.009Z,1016.33
2023-02-19T21:57:13.004Z,1016.3
2023-02-19T22:00:13.016Z,1016.34
2023-02-19T22:03:13.036Z,1016.34
2023-02-19T22:06:13.210Z,1016.34
2023-02-19T22:09:13.010Z,1016.32
2023-02-19T22:12:13.000Z,1016.36
2023-02-19T22:15:13.014Z,1016.42
2023-02-19T22:18:13.002Z,1016.48
2023-02-19T22:21:13.003Z,1016.55
2023-02-19T22:24:12.999Z,1016.61
2023-02-19T22:27:13.008Z,1016.62
2023-02-19T22:30:13.077Z,1016.72
2023-02-19T22:33:13.012Z,1016.8
2023-02-19T22:36:13.178Z,1016.78
2023-02-19T22:39:13.003Z,1016.74
2023-02-19T22:42:13.005Z,1016.66
2023-02-19T22:45:13.032Z,1016.61
2023-02-19T22:48:14.904Z,1016.65
2023-02-19T22:51:13.044Z,1016.66
2023-02-19T22:54:13.011Z,1016.58
2023-02-19T22:57:13.009Z,1016.64
2023-02-19T23:00:13.018Z,1016.66
2023-02-19T23:03:13.018Z,1016.66
2023-02-19T23:06:13.347Z,1016.58
2023-02-19T23:09:13.021Z,1016.53
2023-02-19T23:12:13.015Z,1016.49
2023-02-19T23:15:13.039Z,1016.58
2023-02-19T23:18:13.025Z,1016.65
2023-02-19T23:21:13.022Z,1016.64
2023-02-19T23:24:13.025Z,1016.77
2023-02-19T23:27:13.028Z,1016.79
2023-02-19T23:30:13.087Z,1016.81
2023-02-19T23:33:13.024Z,1016.93
2023-02-19T23:36:13.460Z,1016.98
2023-02-19T23:39:13.038Z,1016.91
2023-02-19T23:42:13.067Z,1016.89
2023-02-19T23:45:13.046Z,1016.85
2023-02-19T23:48:13.018Z,1016.81
2023-02-19T23:51:13.020Z,1016.73
2023-02-19T23:54:13.019Z,1016.68
2023-02-19T23:57:13.013Z,1016.68
